sensor_id;sensor_type;location;lat;lon;timestamp;pressure;altitude;pressure_sealevel;temperature;humidity
4085;BME280;2057;50.858;6.572;2023-11-21T00:02:26;99788.44;;;7.81;100.00
4085;BME280;2057;50.858;6.572;2023-11-21T00:04:52;99796.75;;;7.79;100.00
4085;BME280;2057;50.858;6.572;2023-11-21T00:07:17;99791.81;;;7.82;100.00
4085;BME280;2057;50.858;6.572;2023-11-21T00:09:43;99789.56;;;8.05;100.00
4085;BME280;2057;50.858;6.572;2023-11-21T00:12:08;99795.53;;;8.07;100.00
4085;BME280;2057;50.858;6.572;2023-11-21T00:14:41;99793.72;;;8.04;100.00
4085;BME280;2057;50.858;6.572;2023-11-21T00:17:09;99793.44;;;7.98;100.00
4085;BME280;2057;50.858;6.572;2023-11-21T00:19:35;99791.72;;;7.97;100.00
4085;BME280;2057;50.858;6.572;2023-11-21T00:22:00;99796.03;;;7.99;100.00
4085;BME280;2057;50.858;6.572;2023-11-21T00:24:28;99810.13;;;7.94;100.00
4085;BME280;2057;50.858;6.572;2023-11-21T00:26:54;99805.13;;;7.96;100.00
4085;BME280;2057;50.858;6.572;2023-11-21T00:29:22;99808.00;;;7.85;100.00
4085;BME280;2057;50.858;6.572;2023-11-21T00:31:47;99802.16;;;7.87;100.00
4085;BME280;2057;50.858;6.572;2023-11-21T00:34:16;99809.41;;;7.97;100.00
4085;BME280;2057;50.858;6.572;2023-11-21T00:36:43;99808.22;;;7.90;100.00
4085;BME280;2057;50.858;6.572;2023-11-21T00:39:09;99812.94;;;7.82;100.00
4085;BME280;2057;50.858;6.572;2023-11-21T00:41:34;99811.25;;;7.83;100.00
4085;BME280;2057;50.858;6.572;2023-11-21T00:44:01;99810.63;;;7.87;100.00
4085;BME280;2057;50.858;6.572;2023-11-21T00:46:29;99809.91;;;7.90;100.00
4085;BME280;2057;50.858;6.572;2023-11-21T00:48:55;99811.69;;;7.92;100.00
4085;BME280;2057;50.858;6.572;2023-11-21T00:51:20;99814.53;;;7.98;100.00
4085;BME280;2057;50.858;6.572;2023-11-21T00:53:47;99822.19;;;8.00;100.00
4085;BME280;2057;50.858;6.572;2023-11-21T00:56:12;99815.81;;;7.90;100.00
4085;BME280;2057;50.858;6.572;2023-11-21T00:58:38;99822.47;;;7.88;100.00
4085;BME280;2057;50.858;6.572;2023-11-21T01:01:04;99823.25;;;7.87;100.00
4085;BME280;2057;50.858;6.572;2023-11-21T01:03:29;99822.03;;;7.79;100.00
4085;BME280;2057;50.858;6.572;2023-11-21T01:05:57;99831.25;;;7.78;100.00
4085;BME280;2057;50.858;6.572;2023-11-21T01:08:22;99833.63;;;7.75;100.00
4085;BME280;2057;50.858;6.572;2023-11-21T01:10:49;99837.28;;;7.64;100.00
4085;BME280;2057;50.858;6.572;2023-11-21T01:13:17;99849.25;;;7.68;100.00
4085;BME280;2057;50.858;6.572;2023-11-21T01:15:45;99841.06;;;7.72;100.00
4085;BME280;2057;50.858;6.572;2023-11-21T01:18:10;99846.44;;;7.62;100.00
4085;BME280;2057;50.858;6.572;2023-11-21T01:20:38;99840.91;;;7.52;100.00
4085;BME280;2057;50.858;6.572;2023-11-21T01:23:06;99836.25;;;7.60;100.00
4085;BME280;2057;50.858;6.572;2023-11-21T01:25:31;99839.88;;;7.65;100.00
4085;BME280;2057;50.858;6.572;2023-11-21T01:27:57;99846.78;;;7.86;100.00
4085;BME280;2057;50.858;6.572;2023-11-21T01:30:22;99847.34;;;7.80;100.00
4085;BME280;2057;50.858;6.572;2023-11-21T01:32:47;99853.84;;;7.75;100.00
4085;BME280;2057;50.858;6.572;2023-11-21T01:35:13;99861.44;;;7.75;100.00
4085;BME280;2057;50.858;6.572;2023-11-21T01:37:38;99857.41;;;7.79;100.00
4085;BME280;2057;50.858;6.572;2023-11-21T01:40:08;99856.22;;;7.56;100.00
4085;BME280;2057;50.858;6.572;2023-11-21T01:42:38;99862.38;;;7.44;100.00
4085;BME280;2057;50.858;6.572;2023-11-21T01:45:04;99870.38;;;7.52;100.00
4085;BME280;2057;50.858;6.572;2023-11-21T01:47:32;99863.09;;;7.58;100.00
4085;BME280;2057;50.858;6.572;2023-11-21T01:49:57;99871.13;;;7.67;100.00
4085;BME280;2057;50.858;6.572;2023-11-21T01:52:23;99875.47;;;7.70;100.00
4085;BME280;2057;50.858;6.572;2023-11-21T01:54:50;99867.88;;;7.70;100.00
4085;BME280;2057;50.858;6.572;2023-11-21T01:57:15;99865.38;;;7.70;100.00
4085;BME280;2057;50.858;6.572;2023-11-21T01:59:42;99869.88;;;7.76;100.00
4085;BME280;2057;50.858;6.572;2023-11-21T02:02:08;99864.03;;;7.77;100.00
4085;BME280;2057;50.858;6.572;2023-11-21T02:04:35;99864.97;;;7.79;100.00
4085;BME280;2057;50.858;6.572;2023-11-21T02:07:02;99865.91;;;7.81;100.00
4085;BME280;2057;50.858;6.572;2023-11-21T02:09:31;99871.03;;;7.82;100.00
4085;BME280;2057;50.858;6.572;2023-11-21T02:12:02;99877.59;;;7.79;100.00
4085;BME280;2057;50.858;6.572;2023-11-21T02:14:30;99877.84;;;7.83;100.00
4085;BME280;2057;50.858;6.572;2023-11-21T02:16:56;99887.16;;;7.84;100.00
4085;BME280;2057;50.858;6.572;2023-11-21T02:19:33;99892.22;;;7.84;100.00
4085;BME280;2057;50.858;6.572;2023-11-21T02:22:01;99883.81;;;7.85;100.00
4085;BME280;2057;50.858;6.572;2023-11-21T02:24:29;99892.84;;;7.80;100.00
4085;BME280;2057;50.858;6.572;2023-11-21T02:26:55;99900.59;;;7.83;100.00
4085;BME280;2057;50.858;6.572;2023-11-21T02:29:21;99899.69;;;7.83;100.00
4085;BME280;2057;50.858;6.572;2023-11-21T02:31:48;99895.97;;;7.76;100.00
4085;BME280;2057;50.858;6.572;2023-11-21T02:34:17;99896.09;;;7.78;100.00
4085;BME280;2057;50.858;6.572;2023-11-21T02:36:43;99898.97;;;7.85;100.00
4085;BME280;2057;50.858;6.572;2023-11-21T02:39:10;99899.94;;;7.88;100.00
4085;BME280;2057;50.858;6.572;2023-11-21T02:41:39;99897.28;;;7.84;100.00
4085;BME280;2057;50.858;6.572;2023-11-21T02:44:06;99897.25;;;7.68;100.00
4085;BME280;2057;50.858;6.572;2023-11-21T02:46:33;99896.47;;;7.69;100.00
4085;BME280;2057;50.858;6.572;2023-11-21T02:49:00;99899.31;;;7.75;100.00
4085;BME280;2057;50.858;6.572;2023-11-21T02:51:28;99902.19;;;7.65;100.00
4085;BME280;2057;50.858;6.572;2023-11-21T02:53:53;99895.63;;;7.68;100.00
4085;BME280;2057;50.858;6.572;2023-11-21T02:56:19;99897.50;;;7.73;100.00
4085;BME280;2057;50.858;6.572;2023-11-21T02:58:45;99904.69;;;7.65;100.00
4085;BME280;2057;50.858;6.572;2023-11-21T03:01:10;99907.22;;;7.65;100.00
4085;BME280;2057;50.858;6.572;2023-11-21T03:03:39;99904.69;;;7.65;100.00
4085;BME280;2057;50.858;6.572;2023-11-21T03:06:08;99901.53;;;7.69;100.00
4085;BME280;2057;50.858;6.572;2023-11-21T03:08:33;99898.94;;;7.67;100.00
4085;BME280;2057;50.858;6.572;2023-11-21T03:10:59;99900.66;;;7.68;100.00
4085;BME280;2057;50.858;6.572;2023-11-21T03:13:24;99903.25;;;7.70;100.00
4085;BME280;2057;50.858;6.572;2023-11-21T03:15:49;99911.63;;;7.69;100.00
4085;BME280;2057;50.858;6.572;2023-11-21T03:18:15;99909.59;;;7.62;100.00
4085;BME280;2057;50.858;6.572;2023-11-21T03:20:40;99918.13;;;7.64;100.00
4085;BME280;2057;50.858;6.572;2023-11-21T03:23:06;99912.91;;;7.61;100.00
4085;BME280;2057;50.858;6.572;2023-11-21T03:25:31;99923.78;;;7.60;100.00
4085;BME280;2057;50.858;6.572;2023-11-21T03:27:57;99923.88;;;7.61;100.00
4085;BME280;2057;50.858;6.572;2023-11-21T03:30:25;99926.00;;;7.70;100.00
4085;BME280;2057;50.858;6.572;2023-11-21T03:32:50;99935.31;;;7.71;100.00
4085;BME280;2057;50.858;6.572;2023-11-21T03:35:15;99933.19;;;7.79;100.00
4085;BME280;2057;50.858;6.572;2023-11-21T03:37:43;99937.69;;;7.84;100.00
4085;BME280;2057;50.858;6.572;2023-11-21T03:40:09;99937.69;;;7.84;100.00
4085;BME280;2057;50.858;6.572;2023-11-21T03:42:34;99948.34;;;7.79;100.00
4085;BME280;2057;50.858;6.572;2023-11-21T03:45:00;99946.31;;;7.72;100.00
4085;BME280;2057;50.858;6.572;2023-11-21T03:47:28;99950.88;;;7.62;100.00
4085;BME280;2057;50.858;6.572;2023-11-21T03:49:53;99959.38;;;7.64;100.00
4085;BME280;2057;50.858;6.572;2023-11-21T03:52:21;99960.88;;;7.61;100.00
4085;BME280;2057;50.858;6.572;2023-11-21T03:54:47;99960.81;;;7.59;100.00
4085;BME280;2057;50.858;6.572;2023-11-21T03:57:12;99965.88;;;7.59;100.00
4085;BME280;2057;50.858;6.572;2023-11-21T03:59:40;99967.31;;;7.54;100.00
4085;BME280;2057;50.858;6.572;2023-11-21T04:02:08;99972.56;;;7.59;100.00
4085;BME280;2057;50.858;6.572;2023-11-21T04:04:35;99967.44;;;7.57;100.00
4085;BME280;2057;50.858;6.572;2023-11-21T04:07:01;99974.31;;;7.60;100.00
4085;BME280;2057;50.858;6.572;2023-11-21T04:09:26;99978.75;;;7.64;100.00
4085;BME280;2057;50.858;6.572;2023-11-21T04:11:54;99976.28;;;7.65;100.00
4085;BME280;2057;50.858;6.572;2023-11-21T04:14:22;99974.72;;;7.51;100.00
4085;BME280;2057;50.858;6.572;2023-11-21T04:16:47;99979.47;;;7.61;100.00
4085;BME280;2057;50.858;6.572;2023-11-21T04:19:13;99983.31;;;7.54;100.00
4085;BME280;2057;50.858;6.572;2023-11-21T04:21:40;99979.44;;;7.45;100.00
4085;BME280;2057;50.858;6.572;2023-11-21T04:24:08;99977.63;;;7.59;100.00
4085;BME280;2057;50.858;6.572;2023-11-21T04:26:34;99981.41;;;7.50;100.00
4085;BME280;2057;50.858;6.572;2023-11-21T04:28:59;99983.81;;;7.64;100.00
4085;BME280;2057;50.858;6.572;2023-11-21T04:31:27;99980.00;;;7.56;100.00
4085;BME280;2057;50.858;6.572;2023-11-21T04:33:52;99985.38;;;7.62;100.00
4085;BME280;2057;50.858;6.572;2023-11-21T04:36:20;99985.69;;;7.68;100.00
4085;BME280;2057;50.858;6.572;2023-11-21T04:38:46;99985.69;;;7.68;100.00
4085;BME280;2057;50.858;6.572;2023-11-21T04:41:11;99982.84;;;7.62;100.00
4085;BME280;2057;50.858;6.572;2023-11-21T04:43:37;99988.84;;;7.64;100.00
4085;BME280;2057;50.858;6.572;2023-11-21T04:46:02;99982.91;;;7.63;100.00
4085;BME280;2057;50.858;6.572;2023-11-21T04:48:31;99987.88;;;7.45;100.00
4085;BME280;2057;50.858;6.572;2023-11-21T04:50:58;99991.34;;;7.47;100.00
4085;BME280;2057;50.858;6.572;2023-11-21T04:53:24;99985.41;;;7.47;100.00
4085;BME280;2057;50.858;6.572;2023-11-21T04:55:49;99989.38;;;7.58;100.00
4085;BME280;2057;50.858;6.572;2023-11-21T04:58:17;99996.41;;;7.47;100.00
4085;BME280;2057;50.858;6.572;2023-11-21T05:00:44;99999.19;;;7.52;100.00
4085;BME280;2057;50.858;6.572;2023-11-21T05:03:09;99994.84;;;7.49;100.00
4085;BME280;2057;50.858;6.572;2023-11-21T05:05:35;99994.50;;;7.60;100.00
4085;BME280;2057;50.858;6.572;2023-11-21T05:08:00;99994.94;;;7.67;100.00
4085;BME280;2057;50.858;6.572;2023-11-21T05:10:26;99996.75;;;7.70;100.00
4085;BME280;2057;50.858;6.572;2023-11-21T05:12:52;100005.88;;;7.68;100.00
4085;BME280;2057;50.858;6.572;2023-11-21T05:15:17;100009.38;;;7.70;100.00
4085;BME280;2057;50.858;6.572;2023-11-21T05:17:43;100010.25;;;7.71;100.00
4085;BME280;2057;50.858;6.572;2023-11-21T05:20:13;100023.19;;;7.60;100.00
4085;BME280;2057;50.858;6.572;2023-11-21T05:22:40;100018.22;;;7.95;100.00
4085;BME280;2057;50.858;6.572;2023-11-21T05:25:10;100022.81;;;7.85;100.00
4085;BME280;2057;50.858;6.572;2023-11-21T05:27:36;100026.94;;;7.83;100.00
4085;BME280;2057;50.858;6.572;2023-11-21T05:30:03;100029.59;;;7.87;100.00
4085;BME280;2057;50.858;6.572;2023-11-21T05:32:34;100029.59;;;7.87;100.00
4085;BME280;2057;50.858;6.572;2023-11-21T05:35:00;100030.06;;;7.79;100.00
4085;BME280;2057;50.858;6.572;2023-11-21T05:37:26;100034.41;;;7.82;100.00
4085;BME280;2057;50.858;6.572;2023-11-21T05:39:53;100030.47;;;7.71;100.00
4085;BME280;2057;50.858;6.572;2023-11-21T05:42:18;100038.50;;;7.63;100.00
4085;BME280;2057;50.858;6.572;2023-11-21T05:44:46;100046.19;;;7.65;100.00
4085;BME280;2057;50.858;6.572;2023-11-21T05:47:12;100041.25;;;7.68;100.00
4085;BME280;2057;50.858;6.572;2023-11-21T05:49:39;100048.94;;;7.69;100.00
4085;BME280;2057;50.858;6.572;2023-11-21T05:52:05;100051.22;;;7.65;100.00
4085;BME280;2057;50.858;6.572;2023-11-21T05:54:31;100048.78;;;7.66;100.00
4085;BME280;2057;50.858;6.572;2023-11-21T05:56:59;100055.75;;;7.71;100.00
4085;BME280;2057;50.858;6.572;2023-11-21T05:59:24;100065.91;;;7.72;100.00
4085;BME280;2057;50.858;6.572;2023-11-21T06:01:50;100067.50;;;7.70;100.00
4085;BME280;2057;50.858;6.572;2023-11-21T06:04:15;100070.00;;;7.70;100.00
4085;BME280;2057;50.858;6.572;2023-11-21T06:06:40;100078.81;;;7.77;100.00
4085;BME280;2057;50.858;6.572;2023-11-21T06:09:08;100073.19;;;7.66;100.00
4085;BME280;2057;50.858;6.572;2023-11-21T06:11:39;100076.97;;;7.74;100.00
4085;BME280;2057;50.858;6.572;2023-11-21T06:14:06;100076.50;;;7.65;100.00
4085;BME280;2057;50.858;6.572;2023-11-21T06:16:33;100080.63;;;7.79;100.00
4085;BME280;2057;50.858;6.572;2023-11-21T06:18:58;100087.25;;;7.77;100.00
4085;BME280;2057;50.858;6.572;2023-11-21T06:21:24;100083.59;;;7.72;100.00
4085;BME280;2057;50.858;6.572;2023-11-21T06:23:49;100093.78;;;7.74;100.00
4085;BME280;2057;50.858;6.572;2023-11-21T06:26:15;100092.34;;;7.62;100.00
4085;BME280;2057;50.858;6.572;2023-11-21T06:28:40;100098.44;;;7.66;100.00
4085;BME280;2057;50.858;6.572;2023-11-21T06:31:08;100095.47;;;7.73;100.00
4085;BME280;2057;50.858;6.572;2023-11-21T06:33:35;100106.44;;;7.59;100.00
4085;BME280;2057;50.858;6.572;2023-11-21T06:36:01;100105.00;;;7.62;100.00
4085;BME280;2057;50.858;6.572;2023-11-21T06:38:31;100098.59;;;7.69;100.00
4085;BME280;2057;50.858;6.572;2023-11-21T06:40:57;100105.25;;;7.67;100.00
4085;BME280;2057;50.858;6.572;2023-11-21T06:43:23;100108.69;;;7.69;100.00
4085;BME280;2057;50.858;6.572;2023-11-21T06:45:48;100110.81;;;7.61;100.00
4085;BME280;2057;50.858;6.572;2023-11-21T06:48:14;100115.69;;;7.58;100.00
4085;BME280;2057;50.858;6.572;2023-11-21T06:50:42;100124.63;;;7.68;100.00
4085;BME280;2057;50.858;6.572;2023-11-21T06:53:08;100121.31;;;7.69;100.00
4085;BME280;2057;50.858;6.572;2023-11-21T06:55:34;100129.69;;;7.68;100.00
4085;BME280;2057;50.858;6.572;2023-11-21T06:58:00;100130.84;;;7.73;100.00
4085;BME280;2057;50.858;6.572;2023-11-21T07:00:26;100133.19;;;7.70;100.00
4085;BME280;2057;50.858;6.572;2023-11-21T07:02:54;100132.84;;;7.64;100.00
4085;BME280;2057;50.858;6.572;2023-11-21T07:05:20;100136.25;;;7.64;100.00
4085;BME280;2057;50.858;6.572;2023-11-21T07:07:47;100141.81;;;7.59;100.00
4085;BME280;2057;50.858;6.572;2023-11-21T07:10:13;100150.88;;;7.70;100.00
4085;BME280;2057;50.858;6.572;2023-11-21T07:12:39;100152.28;;;7.65;100.00
4085;BME280;2057;50.858;6.572;2023-11-21T07:15:06;100154.34;;;7.72;100.00
4085;BME280;2057;50.858;6.572;2023-11-21T07:17:34;100161.69;;;7.67;100.00
4085;BME280;2057;50.858;6.572;2023-11-21T07:20:00;100163.59;;;7.72;100.00
4085;BME280;2057;50.858;6.572;2023-11-21T07:22:26;100171.34;;;7.75;100.00
4085;BME280;2057;50.858;6.572;2023-11-21T07:24:51;100178.91;;;7.75;100.00
4085;BME280;2057;50.858;6.572;2023-11-21T07:27:17;100175.28;;;7.69;100.00
4085;BME280;2057;50.858;6.572;2023-11-21T07:29:45;100181.19;;;7.70;100.00
4085;BME280;2057;50.858;6.572;2023-11-21T07:32:13;100189.09;;;7.76;100.00
4085;BME280;2057;50.858;6.572;2023-11-21T07:34:40;100189.22;;;7.78;100.00
4085;BME280;2057;50.858;6.572;2023-11-21T07:37:09;100189.28;;;7.79;100.00
4085;BME280;2057;50.858;6.572;2023-11-21T07:39:37;100189.78;;;7.89;100.00
4085;BME280;2057;50.858;6.572;2023-11-21T07:42:09;100189.19;;;7.93;100.00
4085;BME280;2057;50.858;6.572;2023-11-21T07:44:35;100192.78;;;7.81;100.00
4085;BME280;2057;50.858;6.572;2023-11-21T07:47:01;100187.09;;;7.85;100.00
4085;BME280;2057;50.858;6.572;2023-11-21T07:49:26;100198.09;;;7.71;100.00
4085;BME280;2057;50.858;6.572;2023-11-21T07:51:54;100197.13;;;7.69;100.00
4085;BME280;2057;50.858;6.572;2023-11-21T07:54:20;100200.59;;;7.86;100.00
4085;BME280;2057;50.858;6.572;2023-11-21T07:56:46;100203.47;;;7.77;100.00
4085;BME280;2057;50.858;6.572;2023-11-21T07:59:14;100203.66;;;7.80;100.00
4085;BME280;2057;50.858;6.572;2023-11-21T08:01:39;100216.28;;;7.80;100.00
4085;BME280;2057;50.858;6.572;2023-11-21T08:04:05;100218.63;;;7.77;100.00
4085;BME280;2057;50.858;6.572;2023-11-21T08:06:32;100227.50;;;7.85;100.00
4085;BME280;2057;50.858;6.572;2023-11-21T08:09:00;100230.41;;;7.92;100.00
4085;BME280;2057;50.858;6.572;2023-11-21T08:11:25;100235.47;;;7.92;100.00
4085;BME280;2057;50.858;6.572;2023-11-21T08:13:56;100242.66;;;8.00;100.00
4085;BME280;2057;50.858;6.572;2023-11-21T08:16:22;100238.66;;;7.89;100.00
4085;BME280;2057;50.858;6.572;2023-11-21T08:18:49;100247.97;;;8.05;100.00
4085;BME280;2057;50.858;6.572;2023-11-21T08:21:14;100250.50;;;8.05;100.00
4085;BME280;2057;50.858;6.572;2023-11-21T08:23:39;100250.97;;;7.98;100.00
4085;BME280;2057;50.858;6.572;2023-11-21T08:26:06;100261.50;;;8.06;100.00
4085;BME280;2057;50.858;6.572;2023-11-21T08:28:31;100262.97;;;8.02;100.00
4085;BME280;2057;50.858;6.572;2023-11-21T08:30:56;100262.75;;;7.97;100.00
4085;BME280;2057;50.858;6.572;2023-11-21T08:33:22;100266.38;;;8.03;100.00
4085;BME280;2057;50.858;6.572;2023-11-21T08:35:48;100281.81;;;7.92;100.00
4085;BME280;2057;50.858;6.572;2023-11-21T08:38:13;100270.84;;;7.92;100.00
4085;BME280;2057;50.858;6.572;2023-11-21T08:40:39;100276.84;;;7.94;100.00
4085;BME280;2057;50.858;6.572;2023-11-21T08:43:07;100280.97;;;7.92;100.00
4085;BME280;2057;50.858;6.572;2023-11-21T08:45:38;100280.59;;;8.00;100.00
4085;BME280;2057;50.858;6.572;2023-11-21T08:48:03;100286.53;;;8.01;100.00
4085;BME280;2057;50.858;6.572;2023-11-21T08:50:31;100276.13;;;8.11;100.00
4085;BME280;2057;50.858;6.572;2023-11-21T08:52:56;100284.66;;;8.13;100.00
4085;BME280;2057;50.858;6.572;2023-11-21T08:55:21;100286.94;;;8.09;100.00
4085;BME280;2057;50.858;6.572;2023-11-21T08:57:47;100286.09;;;8.08;100.00
4085;BME280;2057;50.858;6.572;2023-11-21T09:00:13;100291.59;;;8.01;100.00
4085;BME280;2057;50.858;6.572;2023-11-21T09:02:43;100292.09;;;8.10;100.00
4085;BME280;2057;50.858;6.572;2023-11-21T09:05:09;100292.00;;;8.09;100.00
4085;BME280;2057;50.858;6.572;2023-11-21T09:07:36;100289.03;;;8.16;100.00
4085;BME280;2057;50.858;6.572;2023-11-21T09:10:04;100291.75;;;8.04;100.00
4085;BME280;2057;50.858;6.572;2023-11-21T09:12:30;100294.97;;;8.16;100.00
4085;BME280;2057;50.858;6.572;2023-11-21T09:15:02;100298.28;;;8.15;100.00
4085;BME280;2057;50.858;6.572;2023-11-21T09:17:30;100302.88;;;8.23;100.00
4085;BME280;2057;50.858;6.572;2023-11-21T09:19:58;100306.91;;;8.19;100.00
4085;BME280;2057;50.858;6.572;2023-11-21T09:22:23;100310.28;;;8.20;100.00
4085;BME280;2057;50.858;6.572;2023-11-21T09:24:52;100320.78;;;8.26;100.00
4085;BME280;2057;50.858;6.572;2023-11-21T09:27:18;100323.69;;;8.33;100.00
4085;BME280;2057;50.858;6.572;2023-11-21T09:29:47;100320.31;;;8.33;100.00
4085;BME280;2057;50.858;6.572;2023-11-21T09:32:12;100322.66;;;8.30;100.00
4085;BME280;2057;50.858;6.572;2023-11-21T09:34:39;100324.78;;;8.22;100.00
4085;BME280;2057;50.858;6.572;2023-11-21T09:37:08;100326.53;;;8.23;100.00
4085;BME280;2057;50.858;6.572;2023-11-21T09:39:33;100328.25;;;8.24;100.00
4085;BME280;2057;50.858;6.572;2023-11-21T09:42:12;100334.13;;;8.23;100.00
4085;BME280;2057;50.858;6.572;2023-11-21T09:44:53;100339.91;;;8.37;100.00
4085;BME280;2057;50.858;6.572;2023-11-21T09:47:29;100337.13;;;8.32;100.00
4085;BME280;2057;50.858;6.572;2023-11-21T09:49:56;100335.75;;;8.38;100.00
4085;BME280;2057;50.858;6.572;2023-11-21T09:52:25;100340.88;;;8.39;100.00
4085;BME280;2057;50.858;6.572;2023-11-21T09:54:52;100343.16;;;8.35;100.00
4085;BME280;2057;50.858;6.572;2023-11-21T09:57:20;100345.69;;;8.50;100.00
4085;BME280;2057;50.858;6.572;2023-11-21T09:59:46;100342.38;;;8.51;100.00
4085;BME280;2057;50.858;6.572;2023-11-21T10:02:17;100343.13;;;8.65;100.00
4085;BME280;2057;50.858;6.572;2023-11-21T10:04:46;100339.56;;;8.46;100.00
4085;BME280;2057;50.858;6.572;2023-11-21T10:07:13;100354.41;;;8.55;100.00
4085;BME280;2057;50.858;6.572;2023-11-21T10:09:41;100353.00;;;8.60;100.00
4085;BME280;2057;50.858;6.572;2023-11-21T10:12:08;100352.13;;;8.59;100.00
4085;BME280;2057;50.858;6.572;2023-11-21T10:14:37;100357.19;;;8.59;100.00
4085;BME280;2057;50.858;6.572;2023-11-21T10:17:05;100361.88;;;8.68;100.00
4085;BME280;2057;50.858;6.572;2023-11-21T10:19:36;100362.06;;;8.71;100.00
4085;BME280;2057;50.858;6.572;2023-11-21T10:22:02;100355.75;;;8.79;100.00
4085;BME280;2057;50.858;6.572;2023-11-21T10:24:28;100356.66;;;8.65;100.00
4085;BME280;2057;50.858;6.572;2023-11-21T10:26:54;100360.31;;;8.70;100.00
4085;BME280;2057;50.858;6.572;2023-11-21T10:29:19;100360.00;;;8.81;100.00
4085;BME280;2057;50.858;6.572;2023-11-21T10:31:51;100356.53;;;8.78;100.00
4085;BME280;2057;50.858;6.572;2023-11-21T10:34:19;100357.56;;;8.82;100.00
4085;BME280;2057;50.858;6.572;2023-11-21T10:36:45;100361.16;;;8.86;100.00
4085;BME280;2057;50.858;6.572;2023-11-21T10:39:16;100359.56;;;8.88;100.00
4085;BME280;2057;50.858;6.572;2023-11-21T10:41:45;100359.19;;;8.97;100.00
4085;BME280;2057;50.858;6.572;2023-11-21T10:44:15;100370.81;;;8.93;100.00
4085;BME280;2057;50.858;6.572;2023-11-21T10:46:55;100375.09;;;8.94;100.00
4085;BME280;2057;50.858;6.572;2023-11-21T10:49:25;100370.72;;;8.91;100.00
4085;BME280;2057;50.858;6.572;2023-11-21T10:51:52;100363.78;;;9.04;100.00
4085;BME280;2057;50.858;6.572;2023-11-21T10:54:19;100367.56;;;8.95;100.00
4085;BME280;2057;50.858;6.572;2023-11-21T10:56:47;100364.97;;;9.10;100.00
4085;BME280;2057;50.858;6.572;2023-11-21T10:59:16;100363.97;;;9.23;100.00
4085;BME280;2057;50.858;6.572;2023-11-21T11:01:45;100367.22;;;9.21;100.00
4085;BME280;2057;50.858;6.572;2023-11-21T11:04:13;100370.47;;;9.18;100.00
4085;BME280;2057;50.858;6.572;2023-11-21T11:06:43;100367.75;;;9.32;100.00
4085;BME280;2057;50.858;6.572;2023-11-21T11:09:11;100369.19;;;9.26;100.00
4085;BME280;2057;50.858;6.572;2023-11-21T11:11:42;100370.84;;;9.26;100.00
4085;BME280;2057;50.858;6.572;2023-11-21T11:14:11;100375.91;;;9.42;100.00
4085;BME280;2057;50.858;6.572;2023-11-21T11:16:39;100375.91;;;9.42;100.00
4085;BME280;2057;50.858;6.572;2023-11-21T11:19:10;100375.19;;;9.45;100.00
4085;BME280;2057;50.858;6.572;2023-11-21T11:21:50;100371.50;;;9.55;100.00
4085;BME280;2057;50.858;6.572;2023-11-21T11:35:59;100383.38;;;9.56;100.00
4085;BME280;2057;50.858;6.572;2023-11-21T11:38:27;100392.31;;;9.66;100.00
4085;BME280;2057;50.858;6.572;2023-11-21T11:40:56;100394.13;;;9.68;100.00
4085;BME280;2057;50.858;6.572;2023-11-21T11:43:28;100391.22;;;9.61;100.00
4085;BME280;2057;50.858;6.572;2023-11-21T11:45:57;100391.28;;;9.62;100.00
4085;BME280;2057;50.858;6.572;2023-11-21T11:48:26;100398.09;;;9.63;100.00
4085;BME280;2057;50.858;6.572;2023-11-21T11:51:14;100396.66;;;9.68;100.00
4085;BME280;2057;50.858;6.572;2023-11-21T11:53:43;100401.03;;;9.71;100.00
4085;BME280;2057;50.858;6.572;2023-11-21T11:56:31;100401.41;;;9.62;100.00
4085;BME280;2057;50.858;6.572;2023-11-21T11:59:02;100396.53;;;9.65;100.00
4085;BME280;2057;50.858;6.572;2023-11-21T12:01:28;100393.31;;;9.69;100.00
4085;BME280;2057;50.858;6.572;2023-11-21T12:06:56;100400.06;;;9.85;100.00
4085;BME280;2057;50.858;6.572;2023-11-21T12:09:26;100408.22;;;9.80;100.00
4085;BME280;2057;50.858;6.572;2023-11-21T12:11:55;100413.78;;;9.72;100.00
4085;BME280;2057;50.858;6.572;2023-11-21T12:14:22;100408.31;;;9.65;100.00
4085;BME280;2057;50.858;6.572;2023-11-21T12:16:48;100408.16;;;9.62;100.00
4085;BME280;2057;50.858;6.572;2023-11-21T12:19:14;100408.53;;;9.69;100.00
4085;BME280;2057;50.858;6.572;2023-11-21T12:21:40;100409.72;;;9.76;100.00
4085;BME280;2057;50.858;6.572;2023-11-21T12:24:09;100414.31;;;9.83;100.00
4085;BME280;2057;50.858;6.572;2023-11-21T12:26:35;100412.97;;;9.90;100.00
4085;BME280;2057;50.858;6.572;2023-11-21T12:29:04;100419.28;;;9.98;100.00
4085;BME280;2057;50.858;6.572;2023-11-21T12:31:30;100417.47;;;9.96;100.00
4085;BME280;2057;50.858;6.572;2023-11-21T12:33:56;100413.44;;;9.99;100.00
4085;BME280;2057;50.858;6.572;2023-11-21T12:36:22;100413.66;;;10.04;100.00
4085;BME280;2057;50.858;6.572;2023-11-21T12:38:50;100412.28;;;10.11;100.00
4085;BME280;2057;50.858;6.572;2023-11-21T12:41:16;100415.53;;;10.08;100.00
4085;BME280;2057;50.858;6.572;2023-11-21T12:43:42;100423.94;;;10.07;100.00
4085;BME280;2057;50.858;6.572;2023-11-21T12:46:10;100428.16;;;10.07;100.00
4085;BME280;2057;50.858;6.572;2023-11-21T12:48:41;100432.22;;;10.03;100.00
4085;BME280;2057;50.858;6.572;2023-11-21T12:51:11;100440.59;;;10.02;100.00
4085;BME280;2057;50.858;6.572;2023-11-21T12:53:38;100444.34;;;9.92;100.00
4085;BME280;2057;50.858;6.572;2023-11-21T12:56:22;100443.47;;;9.92;100.00
4085;BME280;2057;50.858;6.572;2023-11-21T12:58:48;100440.94;;;9.92;100.00
4085;BME280;2057;50.858;6.572;2023-11-21T13:01:16;100442.28;;;9.85;100.00
4085;BME280;2057;50.858;6.572;2023-11-21T13:03:46;100449.88;;;9.85;100.00
4085;BME280;2057;50.858;6.572;2023-11-21T13:06:14;100455.59;;;9.81;100.00
4085;BME280;2057;50.858;6.572;2023-11-21T13:08:40;100460.19;;;9.71;100.00
4085;BME280;2057;50.858;6.572;2023-11-21T13:11:13;100459.88;;;9.65;100.00
4085;BME280;2057;50.858;6.572;2023-11-21T13:13:41;100460.81;;;9.67;100.00
4085;BME280;2057;50.858;6.572;2023-11-21T13:16:10;100459.47;;;9.57;100.00
4085;BME280;2057;50.858;6.572;2023-11-21T13:18:36;100461.28;;;9.60;100.00
4085;BME280;2057;50.858;6.572;2023-11-21T13:21:04;100453.88;;;9.63;100.00
4085;BME280;2057;50.858;6.572;2023-11-21T13:23:41;100461.53;;;9.65;100.00
4085;BME280;2057;50.858;6.572;2023-11-21T13:26:07;100463.59;;;9.72;100.00
4085;BME280;2057;50.858;6.572;2023-11-21T13:28:35;100464.47;;;9.72;100.00
4085;BME280;2057;50.858;6.572;2023-11-21T13:31:02;100473.97;;;9.77;100.00